createdAt,value
2023-05-08T00:04:17.960Z,51.54
2023-05-08T00:09:21.651Z,52.57
2023-05-08T00:14:25.102Z,54.18
2023-05-08T00:19:28.261Z,55.06
2023-05-08T00:24:31.616Z,55.85
2023-05-08T00:29:35.362Z,56.78
2023-05-08T00:34:38.445Z,57.57
2023-05-08T00:39:41.580Z,57.74
2023-05-08T00:44:46.075Z,58.49
2023-05-08T00:49:50.061Z,58.81
2023-05-08T00:54:54.353Z,59.14
2023-05-08T01:00:00.170Z,59.34
2023-05-08T01:05:04.189Z,59.72
2023-05-08T01:10:08.302Z,60.00
2023-05-08T01:15:20.700Z,60.31
2023-05-08T01:20:39.202Z,60.39
2023-05-08T01:26:03.689Z,60.70
2023-05-08T01:31:40.751Z,60.82
2023-05-08T01:37:11.793Z,61.01
2023-05-08T01:42:37.077Z,61.27
2023-05-08T01:47:42.923Z,61.14
2023-05-08T01:52:51.067Z,61.17
2023-05-08T01:57:58.393Z,61.17
2023-05-08T02:03:02.821Z,61.28
2023-05-08T02:08:09.401Z,61.17
2023-05-08T02:13:19.310Z,61.22
2023-05-08T02:18:25.776Z,61.29
2023-05-08T02:23:30.498Z,61.40
2023-05-08T02:28:35.555Z,61.40
2023-05-08T02:33:43.357Z,61.30
2023-05-08T02:38:51.644Z,61.25
2023-05-08T02:43:55.996Z,61.35
2023-05-08T02:49:05.262Z,61.33
2023-05-08T02:54:11.757Z,61.25
2023-05-08T02:59:29.099Z,61.25
2023-05-08T03:04:40.574Z,61.13
2023-05-08T03:09:48.405Z,60.92
2023-05-08T03:15:07.080Z,60.80
2023-05-08T03:20:17.350Z,60.79
2023-05-08T03:25:22.074Z,60.84
2023-05-08T03:30:27.816Z,60.78
2023-05-08T03:35:42.810Z,60.84
2023-05-08T03:40:47.142Z,60.94
2023-05-08T03:45:51.532Z,60.91
2023-05-08T03:50:55.863Z,60.95
2023-05-08T03:56:00.972Z,60.81
2023-05-08T04:01:25.152Z,60.82
2023-05-08T04:06:49.312Z,60.86
2023-05-08T04:12:05.399Z,60.89
2023-05-08T04:17:16.283Z,60.80
2023-05-08T04:22:23.574Z,60.85
2023-05-08T04:27:27.794Z,60.93
2023-05-08T04:32:41.312Z,61.04
2023-05-08T04:37:47.479Z,60.88
2023-05-08T04:42:51.473Z,60.98
2023-05-08T04:47:55.566Z,61.05
2023-05-08T04:52:59.068Z,61.08
2023-05-08T04:58:03.080Z,61.03
2023-05-08T05:03:06.943Z,61.09
2023-05-08T05:08:10.445Z,61.18
2023-05-08T05:13:13.680Z,61.20
2023-05-08T05:18:17.339Z,61.23
2023-05-08T05:23:20.821Z,61.17
2023-05-08T05:28:24.165Z,61.16
2023-05-08T05:33:27.568Z,61.04
2023-05-08T05:38:31.117Z,60.93
2023-05-08T05:43:34.643Z,60.82
2023-05-08T05:48:41.912Z,60.52
2023-05-08T05:53:45.743Z,60.23
2023-05-08T05:58:49.426Z,60.41
2023-05-08T06:03:53.313Z,60.43
2023-05-08T06:08:57.057Z,60.42
2023-05-08T06:14:00.187Z,60.28
2023-05-08T06:19:03.839Z,60.07
2023-05-08T06:24:07.955Z,59.92
2023-05-08T06:29:11.299Z,59.98
2023-05-08T06:34:14.762Z,59.98
2023-05-08T06:39:18.552Z,60.24
2023-05-08T06:44:21.784Z,60.17
2023-05-08T06:49:24.879Z,60.16
2023-05-08T06:54:34.748Z,59.91
2023-05-08T06:59:42.591Z,59.83
2023-05-08T07:04:46.646Z,59.48
2023-05-08T07:09:50.023Z,58.92
2023-05-08T07:14:54.275Z,58.89
2023-05-08T07:19:59.057Z,58.41
2023-05-08T07:25:02.462Z,58.45
2023-05-08T07:30:06.422Z,58.49
2023-05-08T07:35:14.352Z,58.19
2023-05-08T07:40:17.905Z,57.40
2023-05-08T07:45:21.337Z,57.19
2023-05-08T07:50:26.198Z,57.56
2023-05-08T07:55:33.582Z,57.61
2023-05-08T08:00:38.073Z,57.05
2023-05-08T08:05:42.290Z,56.96
2023-05-08T08:10:45.659Z,56.55
2023-05-08T08:15:48.992Z,56.33
2023-05-08T08:20:52.360Z,56.54
2023-05-08T08:25:55.785Z,54.71
2023-05-08T08:30:59.260Z,53.67
2023-05-08T08:36:03.963Z,54.55
2023-05-08T08:41:07.399Z,54.92
2023-05-08T08:46:16.148Z,54.21
2023-05-08T08:52:04.308Z,54.70
2023-05-08T08:57:09.223Z,53.31
2023-05-08T09:02:20.438Z,53.73
2023-05-08T09:07:24.694Z,53.57
2023-05-08T09:12:28.139Z,54.04
2023-05-08T09:17:31.653Z,53.59
2023-05-08T09:22:39.126Z,52.00
2023-05-08T09:27:43.003Z,52.60
2023-05-08T09:32:46.578Z,52.83
2023-05-08T09:38:07.851Z,52.71
2023-05-08T09:43:14.189Z,53.13
2023-05-08T09:48:17.228Z,52.92
2023-05-08T09:53:20.327Z,52.54
2023-05-08T09:58:25.112Z,52.88
2023-05-08T10:03:47.283Z,52.41
2023-05-08T10:09:09.159Z,52.67
2023-05-08T10:14:12.231Z,52.82
2023-05-08T10:19:20.494Z,52.81
2023-05-08T10:24:33.788Z,52.64
2023-05-08T10:29:52.720Z,52.41
2023-05-08T10:35:03.456Z,52.43
2023-05-08T10:40:07.191Z,51.91
2023-05-08T10:45:11.525Z,51.79
2023-05-08T10:50:23.569Z,51.20
2023-05-08T10:55:31.421Z,51.31
2023-05-08T11:00:57.131Z,50.80
2023-05-08T11:06:01.144Z,51.17
2023-05-08T11:11:17.551Z,51.08
2023-05-08T11:16:55.543Z,51.16
2023-05-08T11:22:23.904Z,51.13
2023-05-08T11:27:35.738Z,51.09
2023-05-08T11:33:04.042Z,50.91
2023-05-08T11:38:36.897Z,51.12
2023-05-08T11:43:45.623Z,50.84
2023-05-08T11:48:49.174Z,50.43
2023-05-08T11:53:52.657Z,50.68
2023-05-08T11:59:06.085Z,50.77
2023-05-08T12:04:12.309Z,50.46
2023-05-08T12:09:17.843Z,50.29
2023-05-08T12:14:23.277Z,49.96
2023-05-08T12:19:26.503Z,49.26
2023-05-08T12:24:30.848Z,49.54
2023-05-08T12:29:36.355Z,49.33
2023-05-08T12:34:41.809Z,48.85
2023-05-08T12:39:47.955Z,48.93
2023-05-08T12:44:52.603Z,49.25
2023-05-08T12:49:58.169Z,49.23
2023-05-08T12:55:01.190Z,49.66
2023-05-08T13:00:14.223Z,48.28
2023-05-08T13:05:20.275Z,46.84
2023-05-08T13:10:24.491Z,47.56
2023-05-08T13:15:28.958Z,47.64
2023-05-08T13:25:31.128Z,48.15
2023-05-08T13:30:36.885Z,48.39
2023-05-08T13:35:41.072Z,47.74
2023-05-08T13:40:44.590Z,47.80
2023-05-08T13:45:48.406Z,47.83
2023-05-08T13:50:51.777Z,47.20
2023-05-08T13:55:55.365Z,47.65
2023-05-08T14:01:00.373Z,47.13
2023-05-08T14:06:08.837Z,46.81
2023-05-08T14:11:15.459Z,45.54
2023-05-08T14:22:33.108Z,45.73
2023-05-08T14:27:58.514Z,45.83
2023-05-08T14:33:04.536Z,46.01
2023-05-08T14:38:08.181Z,46.85
2023-05-08T14:48:57.595Z,45.65
2023-05-08T14:54:01.543Z,45.98
2023-05-08T14:59:09.875Z,45.94
2023-05-08T15:25:37.119Z,46.27
2023-05-08T15:30:41.264Z,46.52
2023-05-08T15:35:49.071Z,46.63
2023-05-08T15:41:00.501Z,47.02
2023-05-08T15:46:04.424Z,46.90
2023-05-08T15:51:30.388Z,46.37
2023-05-08T15:57:09.746Z,44.11
2023-05-08T16:02:14.783Z,43.48
2023-05-08T16:07:48.724Z,43.93
2023-05-08T16:13:09.801Z,43.63
2023-05-08T16:18:13.352Z,43.67
2023-05-08T16:23:37.853Z,43.55
2023-05-08T16:28:59.689Z,44.27
2023-05-08T16:34:28.679Z,44.65
2023-05-08T16:40:14.699Z,44.99
2023-05-08T16:45:20.356Z,45.53
2023-05-08T16:56:32.842Z,46.11
2023-05-08T17:07:22.571Z,46.16
2023-05-08T17:12:40.303Z,46.67
2023-05-08T17:24:21.038Z,46.75
2023-05-08T17:35:58.092Z,46.79
2023-05-08T17:41:18.704Z,46.94
2023-05-08T17:46:22.710Z,47.21
2023-05-08T17:51:29.307Z,47.37
2023-05-08T17:56:32.590Z,47.73
2023-05-08T18:01:44.222Z,47.75
2023-05-08T18:12:54.730Z,48.39
2023-05-08T18:24:26.656Z,48.92
2023-05-08T18:29:49.773Z,49.27
2023-05-08T18:35:24.591Z,49.37
2023-05-08T18:40:42.621Z,49.93
2023-05-08T18:46:14.812Z,50.39
2023-05-08T18:58:00.722Z,51.01
2023-05-08T19:03:19.902Z,51.32
2023-05-08T19:08:25.667Z,51.76
2023-05-08T19:13:34.455Z,52.15
2023-05-08T19:18:37.957Z,52.52
2023-05-08T19:23:44.837Z,52.71
2023-05-08T19:28:49.057Z,52.75
2023-05-08T19:33:52.789Z,52.94
2023-05-08T19:38:56.110Z,53.29
2023-05-08T19:44:01.763Z,53.43
2023-05-08T19:49:05.389Z,53.67
2023-05-08T19:54:08.845Z,57.29
2023-05-08T19:59:15.061Z,54.92
2023-05-08T20:04:18.396Z,54.47
2023-05-08T20:09:21.831Z,54.56
2023-05-08T20:14:25.189Z,54.69
2023-05-08T20:19:28.555Z,54.71
2023-05-08T20:24:31.881Z,54.87
2023-05-08T20:29:35.528Z,54.94
2023-05-08T20:34:39.068Z,55.33
2023-05-08T20:39:42.920Z,55.49
2023-05-08T20:44:46.228Z,55.68
2023-05-08T20:49:49.685Z,55.79
2023-05-08T20:54:52.977Z,55.94
2023-05-08T20:59:56.379Z,56.12
2023-05-08T21:04:59.916Z,56.29
2023-05-08T21:10:03.739Z,56.34
2023-05-08T21:15:07.886Z,56.33
2023-05-08T21:20:11.655Z,56.61
2023-05-08T21:25:15.914Z,56.85
2023-05-08T21:30:19.662Z,57.02
2023-05-08T21:35:22.993Z,57.39
2023-05-08T21:40:26.439Z,57.44
2023-05-08T21:45:33.249Z,57.35
2023-05-08T21:50:36.704Z,57.34
2023-05-08T21:55:44.649Z,57.71
2023-05-08T22:00:56.293Z,58.06
2023-05-08T22:06:12.132Z,58.19
2023-05-08T22:11:42.316Z,57.96
2023-05-08T22:16:45.803Z,57.95
2023-05-08T22:21:48.916Z,58.09
2023-05-08T22:26:52.009Z,58.20
2023-05-08T22:31:55.924Z,58.25
2023-05-08T22:37:00.246Z,58.46
2023-05-08T22:42:03.692Z,58.46
2023-05-08T22:47:06.961Z,58.65
2023-05-08T22:52:10.195Z,58.86
2023-05-08T22:57:14.396Z,59.23
2023-05-08T23:02:17.520Z,59.40
2023-05-08T23:07:20.661Z,59.45
2023-05-08T23:12:23.874Z,59.71
2023-05-08T23:17:27.085Z,59.99
2023-05-08T23:22:30.329Z,59.83
2023-05-08T23:27:33.401Z,59.90
2023-05-08T23:32:38.393Z,59.93
2023-05-08T23:37:42.065Z,60.10
2023-05-08T23:42:45.458Z,60.02
2023-05-08T23:47:49.521Z,60.15
2023-05-08T23:52:52.764Z,60.32
2023-05-08T23:57:57.158Z,60.38
